Terminal Aerodrome Forecast
Issued by NWS

Home | Current Version | Previous Version | Text Only | Print | Product List | Glossary On
Versions: 1 2 3 4 5 6 7 8 9 10 11 12 13 14 15 16 17 18 19 20
000
FTUS43 KBIS 080308 AAB
TAFDIK
TAF AMD
KDIK 080308Z 0803/0824 16008KT P6SM VCTS BKN025 BKN070CB
     FM080400 17005KT P6SM SCT060 BKN100
     FM080600 VRB05KT 4SM BR BKN100
     FM081400 01007KT P6SM SCT100=

USA.gov is the U.S. government's official web portal to all federal, state and local government web resources and services.